Time;durP1;ratioP1;P1;durP2;ratioP2;P2;SDS_P1;SDS_P2;PMS_P1;PMS_P2;Temp;Humidity;BMP_temperature;BMP_pressure;BME280_temperature;BME280_humidity;BME280_pressure;Samples;Min_cycle;Max_cycle;Signal;HPM_P1;HPM_P2
2021/07/07 00:00:25;;;;;;;5.73;4.33;;;;;23.80;100174.00;;;;2061617;28;20227;-57
2021/07/07 00:01:25;;;;;;;5.13;3.93;;;;;23.80;100166.00;;;;2062432;28;20247;-52
2021/07/07 00:02:26;;;;;;;4.93;4.43;;;;;23.80;100168.00;;;;2062482;28;20222;-56
2021/07/07 00:03:26;;;;;;;4.90;4.07;;;;;23.80;100171.00;;;;2066788;28;20213;-57
2021/07/07 00:04:27;;;;;;;4.43;3.50;;;;;23.80;100173.00;;;;2064950;28;20238;-54
2021/07/07 00:05:27;;;;;;;4.20;3.77;;;;;23.80;100174.00;;;;2062512;28;20712;-53
2021/07/07 00:06:27;;;;;;;4.57;4.10;;;;;23.80;100169.00;;;;2062138;28;20735;-54
2021/07/07 00:07:28;;;;;;;4.50;3.80;;;;;23.80;100163.00;;;;2062902;28;20211;-55
2021/07/07 00:08:28;;;;;;;4.83;4.33;;;;;23.80;100167.00;;;;2063933;28;20213;-56
2021/07/07 00:09:28;;;;;;;4.90;4.00;;;;;23.80;100169.00;;;;2065900;28;20226;-55
2021/07/07 00:10:33;;;;;;;4.57;4.07;;;;;23.80;100174.00;;;;2061260;28;20218;-56
2021/07/07 00:11:34;;;;;;;4.40;3.60;;;;;23.80;100162.00;;;;2066943;28;20700;-53
2021/07/07 00:12:34;;;;;;;5.00;4.20;;;;;23.80;100167.00;;;;2069864;28;20222;-54
2021/07/07 00:13:34;;;;;;;4.43;3.83;;;;;23.80;100164.00;;;;2069877;28;20242;-55
2021/07/07 00:14:35;;;;;;;5.57;4.23;;;;;23.80;100166.00;;;;2070366;28;20762;-56
2021/07/07 00:15:35;;;;;;;3.80;3.40;;;;;23.80;100174.00;;;;2069608;28;20218;-53
2021/07/07 00:16:35;;;;;;;4.10;3.70;;;;;23.80;100162.00;;;;2070437;28;20225;-57
2021/07/07 00:17:36;;;;;;;4.63;3.63;;;;;23.80;100167.00;;;;2070444;28;20214;-53
2021/07/07 00:18:36;;;;;;;4.10;3.33;;;;;23.80;100171.00;;;;2070540;28;20293;-56
2021/07/07 00:19:37;;;;;;;3.83;3.43;;;;;23.80;100169.00;;;;2070435;28;20236;-57
2021/07/07 00:21:41;;;;;;;4.00;3.38;;;;;23.80;100165.00;;;;2070518;28;20218;-57
2021/07/07 00:22:41;;;;;;;4.00;3.50;;;;;23.80;100162.00;;;;2070349;28;20220;-57
2021/07/07 00:23:41;;;;;;;5.50;3.53;;;;;23.80;100161.00;;;;2070183;28;20226;-54
2021/07/07 00:24:42;;;;;;;5.53;3.63;;;;;23.80;100160.00;;;;2070315;28;20218;-55
2021/07/07 00:25:42;;;;;;;4.27;3.80;;;;;23.80;100158.00;;;;2070154;28;20239;-53
2021/07/07 00:26:42;;;;;;;3.80;3.20;;;;;23.80;100154.00;;;;2069600;28;20222;-53
2021/07/07 00:27:43;;;;;;;3.50;3.00;;;;;23.80;100160.00;;;;2070487;28;20309;-56
2021/07/07 00:28:43;;;;;;;4.27;3.43;;;;;23.80;100150.00;;;;2069720;28;20303;-54
2021/07/07 00:29:44;;;;;;;4.23;3.33;;;;;23.80;100159.00;;;;2065625;28;21081;-54
2021/07/07 00:30:46;;;;;;;3.20;2.90;;;;;23.80;100149.00;;;;2068780;28;20218;-55
2021/07/07 00:31:46;;;;;;;3.70;3.30;;;;;23.80;100161.00;;;;2068664;28;20232;-54
2021/07/07 00:32:46;;;;;;;3.93;3.40;;;;;23.80;100160.00;;;;2070074;28;20305;-53
2021/07/07 00:33:47;;;;;;;3.40;3.10;;;;;23.80;100154.00;;;;2070432;28;20214;-56
2021/07/07 00:34:47;;;;;;;3.97;3.43;;;;;23.80;100154.00;;;;2069367;28;20256;-53
2021/07/07 00:35:48;;;;;;;3.97;3.20;;;;;23.80;100160.00;;;;2065072;28;20298;-56
2021/07/07 00:36:48;;;;;;;5.03;2.90;;;;;23.80;100158.00;;;;2062786;28;20227;-57
2021/07/07 00:37:48;;;;;;;3.30;3.00;;;;;23.80;100149.00;;;;2060961;28;20219;-56
2021/07/07 00:38:49;;;;;;;3.70;3.40;;;;;23.80;100168.00;;;;2062344;28;20223;-55
2021/07/07 00:39:49;;;;;;;3.57;3.00;;;;;23.80;100160.00;;;;2063003;28;20214;-57
2021/07/07 00:40:49;;;;;;;3.47;2.73;;;;;23.70;100160.00;;;;2062297;28;20218;-56
2021/07/07 00:41:50;;;;;;;3.30;3.00;;;;;23.80;100162.00;;;;2063368;28;20215;-57
2021/07/07 00:42:50;;;;;;;4.23;3.13;;;;;23.80;100157.00;;;;2063086;28;20276;-57
2021/07/07 00:43:50;;;;;;;3.37;2.83;;;;;23.80;100155.00;;;;2063271;28;20227;-57
2021/07/07 00:44:51;;;;;;;4.87;3.37;;;;;23.80;100157.00;;;;2063133;28;20960;-53
2021/07/07 00:45:51;;;;;;;3.67;2.80;;;;;23.80;100166.00;;;;2063068;28;20329;-55
2021/07/07 00:46:51;;;;;;;3.73;2.80;;;;;23.80;100162.00;;;;2063121;28;20790;-56
2021/07/07 00:47:52;;;;;;;3.10;2.80;;;;;23.80;100164.00;;;;2062737;28;20615;-57
2021/07/07 00:48:52;;;;;;;3.90;3.23;;;;;23.70;100165.00;;;;2063031;28;20865;-53
2021/07/07 00:49:52;;;;;;;2.83;2.43;;;;;23.70;100163.00;;;;2063768;28;20322;-57
2021/07/07 00:50:53;;;;;;;3.10;2.80;;;;;23.80;100166.00;;;;2062860;28;20226;-54
2021/07/07 00:51:53;;;;;;;3.50;3.13;;;;;23.80;100173.00;;;;2054706;28;20223;-53
2021/07/07 00:52:57;;;;;;;2.93;2.57;;;;;23.70;100163.00;;;;2054931;28;20635;-53
2021/07/07 00:53:57;;;;;;;3.10;2.50;;;;;23.70;100173.00;;;;2067300;28;20210;-53
2021/07/07 00:54:57;;;;;;;2.93;2.53;;;;;23.70;100170.00;;;;2061878;28;20223;-57
2021/07/07 00:55:59;;;;;;;3.23;2.93;;;;;23.80;100166.00;;;;2062965;28;20557;-57
2021/07/07 00:57:00;;;;;;;3.65;2.92;;;;;23.80;100165.00;;;;2071119;28;20206;-53
2021/07/07 00:58:01;;;;;;;3.10;2.80;;;;;23.80;100167.00;;;;2071652;28;20207;-57
2021/07/07 00:59:01;;;;;;;3.10;2.50;;;;;23.70;100165.00;;;;2069518;28;20218;-54
2021/07/07 01:00:12;;;;;;;3.13;2.70;;;;;23.70;100163.00;;;;2063738;28;20454;-56
2021/07/07 01:01:13;;;;;;;3.00;2.72;;;;;23.70;100162.00;;;;2063889;28;20575;-54
2021/07/07 01:02:17;;;;;;;2.70;2.50;;;;;23.70;100171.00;;;;2069906;28;20210;-55
2021/07/07 01:03:17;;;;;;;2.72;2.28;;;;;23.70;100163.00;;;;2062945;28;20303;-57
2021/07/07 01:04:17;;;;;;;2.30;2.10;;;;;23.70;100155.00;;;;2063145;28;20286;-53
2021/07/07 01:05:18;;;;;;;3.17;2.70;;;;;23.70;100156.00;;;;2063065;28;20223;-56
2021/07/07 01:06:18;;;;;;;2.50;2.30;;;;;23.70;100157.00;;;;2063596;28;20235;-56
2021/07/07 01:07:19;;;;;;;3.73;2.40;;;;;23.70;100158.00;;;;2063573;28;20277;-57
2021/07/07 01:08:19;;;;;;;2.40;2.10;;;;;23.70;100163.00;;;;2063359;28;20277;-52
2021/07/07 01:09:19;;;;;;;2.93;2.40;;;;;23.70;100168.00;;;;2063597;28;20646;-54
2021/07/07 01:10:20;;;;;;;3.07;2.20;;;;;23.70;100158.00;;;;2062599;28;20219;-55
2021/07/07 01:11:20;;;;;;;2.73;2.30;;;;;23.70;100167.00;;;;2063404;28;20265;-56
2021/07/07 01:12:20;;;;;;;2.30;2.10;;;;;23.70;100161.00;;;;2063677;28;20607;-56
2021/07/07 01:13:21;;;;;;;5.37;2.80;;;;;23.70;100169.00;;;;2063502;28;20226;-56
2021/07/07 01:14:21;;;;;;;2.43;2.23;;;;;23.70;100163.00;;;;2063269;28;20242;-57
2021/07/07 01:15:22;;;;;;;3.30;2.40;;;;;23.70;100165.00;;;;2063295;28;20222;-57
2021/07/07 01:16:22;;;;;;;2.30;2.00;;;;;23.70;100164.00;;;;2063256;28;20246;-55
2021/07/07 01:17:24;;;;;;;2.33;2.13;;;;;23.70;100166.00;;;;2063500;28;20226;-56
2021/07/07 01:18:24;;;;;;;3.97;2.20;;;;;23.70;100164.00;;;;2063379;28;20227;-55
2021/07/07 01:19:24;;;;;;;2.63;2.20;;;;;23.70;100158.00;;;;2063390;28;20214;-55
2021/07/07 01:20:25;;;;;;;3.07;2.03;;;;;23.70;100163.00;;;;2062462;28;20246;-56
2021/07/07 01:21:25;;;;;;;2.90;2.53;;;;;23.70;100163.00;;;;2063265;28;20233;-56
2021/07/07 01:22:28;;;;;;;2.47;2.23;;;;;23.70;100163.00;;;;2063434;28;20226;-55
2021/07/07 01:23:29;;;;;;;2.40;1.90;;;;;23.70;100152.00;;;;2063217;28;20269;-56
2021/07/07 01:24:29;;;;;;;2.70;2.40;;;;;23.70;100154.00;;;;2062844;28;20223;-60
2021/07/07 01:25:30;;;;;;;2.43;1.87;;;;;23.70;100156.00;;;;2063234;28;20579;-58
2021/07/07 01:26:30;;;;;;;1.90;1.80;;;;;23.70;100147.00;;;;2063407;28;20215;-55
2021/07/07 01:27:31;;;;;;;2.80;2.40;;;;;23.70;100160.00;;;;2063458;28;20215;-54
2021/07/07 01:28:32;;;;;;;3.57;2.20;;;;;23.70;100153.00;;;;2062336;28;20211;-55
2021/07/07 01:29:33;;;;;;;2.65;2.00;;;;;23.70;100148.00;;;;2067543;28;20755;-54
2021/07/07 01:30:33;;;;;;;1.93;1.77;;;;;23.70;100153.00;;;;2064564;28;20210;-53
2021/07/07 01:31:34;;;;;;;3.10;2.40;;;;;23.70;100152.00;;;;2064505;28;20210;-54
2021/07/07 01:32:34;;;;;;;2.67;2.20;;;;;23.70;100147.00;;;;2062205;28;20218;-57
2021/07/07 01:33:34;;;;;;;1.80;1.70;;;;;23.70;100154.00;;;;2062590;28;20223;-53
2021/07/07 01:34:35;;;;;;;2.37;2.10;;;;;23.70;100150.00;;;;2063006;28;20234;-54
2021/07/07 01:35:35;;;;;;;3.47;1.93;;;;;23.70;100150.00;;;;2063075;28;20218;-57
2021/07/07 01:36:36;;;;;;;2.10;1.90;;;;;23.70;100148.00;;;;2062743;28;20227;-55
2021/07/07 01:37:36;;;;;;;3.10;1.60;;;;;23.70;100156.00;;;;2062315;28;20310;-56
2021/07/07 01:38:37;;;;;;;2.13;1.90;;;;;23.70;100153.00;;;;2063270;28;20218;-57
2021/07/07 01:39:37;;;;;;;2.53;1.70;;;;;23.70;100147.00;;;;2063366;28;20461;-55
2021/07/07 01:40:38;;;;;;;2.53;1.53;;;;;23.70;100158.00;;;;2062493;28;20281;-57
2021/07/07 01:41:38;;;;;;;2.83;1.90;;;;;23.70;100151.00;;;;2062821;28;20215;-57
2021/07/07 01:42:38;;;;;;;2.33;1.80;;;;;23.70;100157.00;;;;2067008;28;20214;-57
2021/07/07 01:43:39;;;;;;;2.67;2.10;;;;;23.70;100154.00;;;;2071039;28;20588;-56
2021/07/07 01:44:39;;;;;;;2.10;1.73;;;;;23.70;100152.00;;;;2071311;28;20221;-57
2021/07/07 01:45:40;;;;;;;3.57;2.40;;;;;23.70;100156.00;;;;2070699;28;20788;-57
2021/07/07 01:46:40;;;;;;;2.60;1.57;;;;;23.70;100155.00;;;;2063812;28;20596;-57
2021/07/07 01:47:40;;;;;;;3.23;2.00;;;;;23.70;100162.00;;;;2066540;28;20202;-57
2021/07/07 01:48:41;;;;;;;2.00;1.80;;;;;23.70;100162.00;;;;2065522;28;20214;-55
2021/07/07 01:49:41;;;;;;;2.23;1.63;;;;;23.70;100161.00;;;;2062960;28;20560;-57
2021/07/07 01:50:41;;;;;;;2.07;1.63;;;;;23.70;100155.00;;;;2062288;28;20215;-55
2021/07/07 01:51:42;;;;;;;2.93;1.90;;;;;23.70;100149.00;;;;2063144;28;20214;-57
2021/07/07 01:52:42;;;;;;;1.70;1.60;;;;;23.70;100152.00;;;;2062938;28;20215;-57
2021/07/07 01:53:43;;;;;;;1.80;1.70;;;;;23.70;100158.00;;;;2063050;28;21072;-53
2021/07/07 01:54:43;;;;;;;1.87;1.70;;;;;23.70;100154.00;;;;2063039;28;20226;-53
2021/07/07 01:55:43;;;;;;;1.77;1.60;;;;;23.70;100149.00;;;;2063148;28;20235;-55
2021/07/07 01:56:43;;;;;;;1.77;1.63;;;;;23.70;100152.00;;;;2063231;28;20238;-55
2021/07/07 01:57:45;;;;;;;1.77;1.67;;;;;23.70;100157.00;;;;2063129;28;20711;-54
2021/07/07 01:58:45;;;;;;;2.17;1.58;;;;;23.70;100158.00;;;;2063066;28;20243;-56
2021/07/07 01:59:46;;;;;;;1.47;1.37;;;;;23.70;100108.00;;;;2062963;28;20548;-56
2021/07/07 02:00:46;;;;;;;2.00;1.70;;;;;23.60;100153.00;;;;2062189;28;20907;-55
2021/07/07 02:01:46;;;;;;;2.20;2.00;;;;;23.60;100157.00;;;;2063231;28;20217;-55
2021/07/07 02:02:47;;;;;;;2.50;1.70;;;;;23.70;100154.00;;;;2063079;28;20214;-57
2021/07/07 02:03:47;;;;;;;2.10;1.70;;;;;23.70;100160.00;;;;2063115;28;20243;-56
2021/07/07 02:04:48;;;;;;;1.73;1.50;;;;;23.70;100164.00;;;;2063492;28;20557;-56
2021/07/07 02:05:48;;;;;;;2.10;1.73;;;;;23.70;100163.00;;;;2058741;28;20213;-56
2021/07/07 02:06:49;;;;;;;2.07;1.70;;;;;23.70;100166.00;;;;2073975;28;20691;-55
2021/07/07 02:07:49;;;;;;;2.33;1.70;;;;;23.70;100172.00;;;;2068688;28;20309;-54
2021/07/07 02:08:50;;;;;;;1.93;1.63;;;;;23.70;100163.00;;;;2062977;28;20218;-55
2021/07/07 02:09:50;;;;;;;3.20;1.67;;;;;23.70;100165.00;;;;2065051;28;20214;-55
2021/07/07 02:10:50;;;;;;;1.37;1.27;;;;;23.60;100162.00;;;;2070253;28;20214;-57
2021/07/07 02:11:51;;;;;;;2.27;1.77;;;;;23.70;100165.00;;;;2071121;28;20297;-55
2021/07/07 02:12:51;;;;;;;1.40;1.27;;;;;23.70;100160.00;;;;2070313;28;20213;-57
2021/07/07 02:13:51;;;;;;;1.80;1.53;;;;;23.60;100163.00;;;;2063041;28;20215;-55
2021/07/07 02:14:52;;;;;;;1.87;1.50;;;;;23.70;100155.00;;;;2062875;28;20234;-57
2021/07/07 02:15:52;;;;;;;2.77;1.50;;;;;23.70;100159.00;;;;2062960;28;20621;-54
2021/07/07 02:16:53;;;;;;;1.83;1.43;;;;;23.70;100166.00;;;;2063048;28;20597;-55
2021/07/07 02:17:54;;;;;;;1.77;1.47;;;;;23.60;100164.00;;;;2062897;28;20711;-51
2021/07/07 02:18:54;;;;;;;2.20;1.80;;;;;23.70;100161.00;;;;2062797;28;20580;-54
2021/07/07 02:19:54;;;;;;;1.50;1.40;;;;;23.70;100157.00;;;;2062760;28;20211;-55
2021/07/07 02:20:55;;;;;;;1.80;1.50;;;;;23.60;100158.00;;;;2061466;28;20211;-55
2021/07/07 02:21:55;;;;;;;2.60;1.57;;;;;23.60;100152.00;;;;2063111;28;20237;-57
2021/07/07 02:22:55;;;;;;;1.63;1.43;;;;;23.60;100156.00;;;;2062626;28;20207;-56
2021/07/07 02:23:57;;;;;;;1.80;1.27;;;;;23.60;100156.00;;;;2062397;28;20223;-53
2021/07/07 02:24:57;;;;;;;2.88;1.52;;;;;23.60;100162.00;;;;2062062;28;20370;-55
2021/07/07 02:25:58;;;;;;;1.90;1.67;;;;;23.60;100156.00;;;;2062972;28;20245;-54
2021/07/07 02:26:58;;;;;;;2.37;1.50;;;;;23.60;100156.00;;;;2062187;28;20218;-54
2021/07/07 02:27:59;;;;;;;1.50;1.13;;;;;23.60;100155.00;;;;2062291;28;20779;-55
2021/07/07 02:28:59;;;;;;;1.50;1.30;;;;;23.60;100160.00;;;;2062769;28;20692;-55
2021/07/07 02:30:00;;;;;;;2.00;1.40;;;;;23.60;100161.00;;;;2062961;28;20242;-57
2021/07/07 02:31:00;;;;;;;1.63;1.50;;;;;23.60;100156.00;;;;2062185;28;20215;-54
2021/07/07 02:32:01;;;;;;;2.83;1.70;;;;;23.60;100149.00;;;;2062658;28;20330;-55
2021/07/07 02:33:02;;;;;;;1.60;1.33;;;;;23.60;100148.00;;;;2062801;28;20246;-57
2021/07/07 02:34:02;;;;;;;1.80;1.60;;;;;23.60;100145.00;;;;2062965;28;20454;-53
2021/07/07 02:35:04;;;;;;;1.77;1.57;;;;;23.60;100137.00;;;;2071248;28;20330;-54
2021/07/07 02:36:05;;;;;;;3.55;1.83;;;;;23.60;100143.00;;;;2069251;28;20473;-57
2021/07/07 02:37:05;;;;;;;3.70;1.10;;;;;23.60;100148.00;;;;2068096;28;21279;-56
2021/07/07 02:38:07;;;;;;;2.53;1.57;;;;;23.60;100144.00;;;;2062815;28;20222;-56
2021/07/07 02:39:07;;;;;;;2.10;1.45;;;;;23.60;100138.00;;;;2062821;28;20226;-57
2021/07/07 02:40:08;;;;;;;1.80;1.50;;;;;23.60;100134.00;;;;2062734;28;20338;-56
2021/07/07 02:41:08;;;;;;;1.30;1.10;;;;;23.60;100136.00;;;;2061834;28;20222;-55
2021/07/07 02:42:09;;;;;;;2.33;1.30;;;;;23.60;100143.00;;;;2062918;28;20526;-56
2021/07/07 02:43:09;;;;;;;1.67;1.50;;;;;23.60;100135.00;;;;2062657;28;20565;-55
2021/07/07 02:44:09;;;;;;;1.63;1.53;;;;;23.60;100135.00;;;;2062871;28;20587;-56
2021/07/07 02:45:10;;;;;;;2.73;1.43;;;;;23.60;100147.00;;;;2062754;28;20218;-56
2021/07/07 02:46:11;;;;;;;3.80;1.47;;;;;23.60;100147.00;;;;2062787;28;20218;-55
2021/07/07 02:47:11;;;;;;;1.60;1.27;;;;;23.60;100151.00;;;;2062466;28;20449;-55
2021/07/07 02:48:12;;;;;;;2.07;1.70;;;;;23.60;100150.00;;;;2061994;28;20445;-60
2021/07/07 02:49:12;;;;;;;1.53;1.43;;;;;23.60;100149.00;;;;2062745;28;20214;-57
2021/07/07 02:50:14;;;;;;;1.63;1.37;;;;;23.60;100148.00;;;;2061771;28;20443;-54
2021/07/07 02:51:14;;;;;;;2.22;1.60;;;;;23.60;100147.00;;;;2062519;28;20215;-57
2021/07/07 02:52:14;;;;;;;1.40;1.20;;;;;23.60;100151.00;;;;2062939;28;20207;-54
2021/07/07 02:53:16;;;;;;;3.03;1.73;;;;;23.60;100149.00;;;;2062740;28;20211;-54
2021/07/07 02:54:16;;;;;;;1.02;0.93;;;;;23.60;100156.00;;;;2062664;28;20265;-55
2021/07/07 02:55:17;;;;;;;2.07;1.47;;;;;23.60;100155.00;;;;2062628;28;20829;-57
2021/07/07 02:56:18;;;;;;;2.08;1.40;;;;;23.60;100148.00;;;;2062757;28;20215;-57
2021/07/07 02:57:19;;;;;;;1.30;1.20;;;;;23.60;100149.00;;;;2062661;28;20704;-54
2021/07/07 02:58:19;;;;;;;1.90;1.30;;;;;23.60;100150.00;;;;2062752;28;20218;-55
2021/07/07 02:59:19;;;;;;;1.30;1.20;;;;;23.60;100150.00;;;;2062864;28;20215;-56
2021/07/07 03:00:20;;;;;;;1.30;1.20;;;;;23.60;100163.00;;;;2061870;28;20223;-56
2021/07/07 03:01:21;;;;;;;1.95;1.60;;;;;23.60;100155.00;;;;2062309;28;20226;-53
2021/07/07 03:02:21;;;;;;;2.33;1.50;;;;;23.60;100163.00;;;;2062494;28;20318;-55
2021/07/07 03:03:23;;;;;;;1.87;1.40;;;;;23.60;100155.00;;;;2062942;28;20600;-56
2021/07/07 03:04:23;;;;;;;1.35;1.23;;;;;23.60;100158.00;;;;2063165;28;20238;-55
2021/07/07 03:05:24;;;;;;;1.30;1.20;;;;;23.60;100157.00;;;;2067487;28;20222;-56
2021/07/07 03:06:24;;;;;;;1.50;1.20;;;;;23.60;100159.00;;;;2072306;28;20218;-55
2021/07/07 03:07:24;;;;;;;1.60;1.30;;;;;23.60;100158.00;;;;2065917;28;20223;-57
2021/07/07 03:08:34;;;;;;;1.70;1.43;;;;;23.60;100169.00;;;;2063676;28;20221;-57
2021/07/07 03:09:34;;;;;;;2.42;1.45;;;;;23.60;100167.00;;;;2062616;28;20294;-55
2021/07/07 03:10:34;;;;;;;1.77;1.40;;;;;23.60;100162.00;;;;2068210;28;20235;-56
2021/07/07 03:11:35;;;;;;;1.63;1.40;;;;;23.60;100166.00;;;;2064140;28;20229;-56
2021/07/07 03:12:35;;;;;;;1.60;1.47;;;;;23.60;100163.00;;;;2061970;28;20231;-53
2021/07/07 03:13:36;;;;;;;1.70;1.33;;;;;23.60;100167.00;;;;2061880;28;20219;-55
2021/07/07 03:14:36;;;;;;;1.47;1.33;;;;;23.50;100170.00;;;;2062626;28;20215;-56
2021/07/07 03:15:37;;;;;;;1.60;1.33;;;;;23.60;100166.00;;;;2062220;28;20219;-56
2021/07/07 03:16:38;;;;;;;5.57;1.33;;;;;23.60;100167.00;;;;2062203;28;20741;-56
2021/07/07 03:17:38;;;;;;;1.63;1.20;;;;;23.50;100169.00;;;;2061592;28;20210;-56
2021/07/07 03:18:38;;;;;;;2.23;1.20;;;;;23.50;100173.00;;;;2062583;28;20782;-57
2021/07/07 03:19:39;;;;;;;2.30;1.40;;;;;23.60;100175.00;;;;2062320;28;20236;-55
2021/07/07 03:20:41;;;;;;;1.40;1.30;;;;;23.60;100173.00;;;;2061054;28;20219;-57
2021/07/07 03:21:41;;;;;;;1.65;1.55;;;;;23.50;100173.00;;;;2061726;28;21154;-57
2021/07/07 03:22:42;;;;;;;1.63;1.33;;;;;23.60;100179.00;;;;2062742;28;20613;-54
2021/07/07 03:23:42;;;;;;;1.70;1.20;;;;;23.60;100179.00;;;;2062706;28;20284;-56
2021/07/07 03:24:42;;;;;;;1.90;1.50;;;;;23.60;100168.00;;;;2062452;28;20215;-56
2021/07/07 03:25:43;;;;;;;1.30;1.20;;;;;23.60;100181.00;;;;2062495;28;20221;-57
2021/07/07 03:26:43;;;;;;;2.47;1.27;;;;;23.60;100184.00;;;;2062363;28;20207;-53
2021/07/07 03:27:44;;;;;;;1.57;1.47;;;;;23.50;100180.00;;;;2062589;28;20242;-53
2021/07/07 03:28:46;;;;;;;2.63;1.43;;;;;23.60;100181.00;;;;2062711;28;20219;-54
2021/07/07 03:29:46;;;;;;;3.95;1.50;;;;;23.60;100189.00;;;;2062663;28;20280;-56
2021/07/07 03:30:47;;;;;;;1.90;1.20;;;;;23.50;100178.00;;;;2061636;28;20715;-55
2021/07/07 03:31:47;;;;;;;1.50;1.30;;;;;23.50;100187.00;;;;2062669;28;20611;-56
2021/07/07 03:32:48;;;;;;;2.17;1.43;;;;;23.50;100183.00;;;;2062564;28;20215;-57
2021/07/07 03:33:48;;;;;;;1.30;1.20;;;;;23.50;100181.00;;;;2062038;28;20310;-58
2021/07/07 03:34:48;;;;;;;1.70;1.60;;;;;23.50;100182.00;;;;2062487;28;20215;-60
2021/07/07 03:35:49;;;;;;;1.90;1.20;;;;;23.50;100177.00;;;;2062473;28;20246;-58
2021/07/07 03:36:49;;;;;;;1.47;1.10;;;;;23.50;100182.00;;;;2062420;28;20372;-57
2021/07/07 03:37:49;;;;;;;1.40;1.23;;;;;23.50;100189.00;;;;2064596;28;20214;-58
2021/07/07 03:38:50;;;;;;;1.40;1.20;;;;;23.50;100189.00;;;;2069928;28;20745;-57
2021/07/07 03:39:50;;;;;;;1.93;1.10;;;;;23.60;100195.00;;;;2068379;28;20301;-53
2021/07/07 03:40:50;;;;;;;1.37;1.27;;;;;23.50;100188.00;;;;2062550;28;20579;-55
2021/07/07 03:41:51;;;;;;;1.40;1.20;;;;;23.50;100193.00;;;;2062205;28;20269;-56
2021/07/07 03:42:51;;;;;;;2.30;0.97;;;;;23.50;100189.00;;;;2062473;28;20214;-56
2021/07/07 03:43:51;;;;;;;1.43;1.13;;;;;23.50;100190.00;;;;2062328;28;20696;-56
2021/07/07 03:44:52;;;;;;;1.30;1.20;;;;;23.50;100191.00;;;;2062664;28;20226;-57
2021/07/07 03:45:52;;;;;;;1.30;1.20;;;;;23.50;100192.00;;;;2061923;28;20221;-53
2021/07/07 03:46:52;;;;;;;1.27;1.07;;;;;23.50;100195.00;;;;2061924;28;20229;-56
2021/07/07 03:47:53;;;;;;;2.77;1.80;;;;;23.50;100196.00;;;;2061932;28;20219;-55
2021/07/07 03:48:53;;;;;;;1.47;1.30;;;;;23.50;100193.00;;;;2061238;28;20215;-57
2021/07/07 03:49:54;;;;;;;1.30;1.10;;;;;23.50;100199.00;;;;2061195;28;20226;-56
2021/07/07 03:50:54;;;;;;;1.60;1.20;;;;;23.50;100192.00;;;;2061072;28;20215;-56
2021/07/07 03:51:54;;;;;;;1.30;1.13;;;;;23.50;100204.00;;;;2062595;28;20641;-53
2021/07/07 03:52:55;;;;;;;1.93;1.30;;;;;23.50;100191.00;;;;2061781;28;20242;-56
2021/07/07 03:53:55;;;;;;;2.73;1.40;;;;;23.50;100204.00;;;;2061853;28;20217;-55
2021/07/07 03:54:55;;;;;;;1.33;1.23;;;;;23.50;100201.00;;;;2061801;28;20215;-56
2021/07/07 03:55:56;;;;;;;1.80;1.37;;;;;23.50;100203.00;;;;2062004;28;20696;-56
2021/07/07 03:56:56;;;;;;;1.50;1.13;;;;;23.50;100196.00;;;;2062152;28;20211;-56
2021/07/07 03:57:57;;;;;;;1.80;1.20;;;;;23.50;100205.00;;;;2062590;28;20214;-54
2021/07/07 03:58:57;;;;;;;1.20;1.10;;;;;23.50;100209.00;;;;2062500;28;20299;-55
2021/07/07 03:59:57;;;;;;;1.30;1.20;;;;;23.50;100202.00;;;;2062276;28;20218;-55
2021/07/07 04:00:58;;;;;;;1.60;1.00;;;;;23.50;100211.00;;;;2061402;28;20222;-56
2021/07/07 04:01:58;;;;;;;1.77;1.27;;;;;23.50;100209.00;;;;2066954;28;20695;-57
2021/07/07 04:02:58;;;;;;;1.60;1.33;;;;;23.50;100216.00;;;;2070360;28;20723;-57
2021/07/07 04:03:59;;;;;;;1.40;1.20;;;;;23.50;100212.00;;;;2070581;28;20582;-53
2021/07/07 04:04:59;;;;;;;1.50;1.10;;;;;23.50;100219.00;;;;2070377;28;20206;-54
2021/07/07 04:05:59;;;;;;;1.60;1.20;;;;;23.50;100224.00;;;;2069818;28;20202;-56
2021/07/07 04:07:00;;;;;;;1.23;1.10;;;;;23.50;100228.00;;;;2070468;28;20662;-56
2021/07/07 04:08:01;;;;;;;4.20;1.42;;;;;23.50;100222.00;;;;2063107;28;20302;-55
2021/07/07 04:09:01;;;;;;;1.30;1.20;;;;;23.50;100221.00;;;;2063175;28;20207;-55
2021/07/07 04:10:04;;;;;;;2.47;1.13;;;;;23.50;100224.00;;;;2065344;28;20313;-56
2021/07/07 04:11:05;;;;;;;1.80;1.40;;;;;23.50;100232.00;;;;2068526;28;20210;-55
2021/07/07 04:12:06;;;;;;;1.50;1.33;;;;;23.50;100244.00;;;;2062552;28;20203;-53
2021/07/07 04:13:06;;;;;;;1.30;1.10;;;;;23.50;100226.00;;;;2065032;28;20461;-54
2021/07/07 04:14:08;;;;;;;1.30;1.20;;;;;23.50;100225.00;;;;2064080;28;20203;-55
2021/07/07 04:15:09;;;;;;;1.52;1.00;;;;;23.50;100228.00;;;;2063248;28;20686;-56
2021/07/07 04:16:09;;;;;;;1.93;1.40;;;;;23.50;100221.00;;;;2063051;28;20222;-55
2021/07/07 04:17:10;;;;;;;2.33;1.27;;;;;23.50;100229.00;;;;2067102;28;20461;-56
2021/07/07 04:18:10;;;;;;;1.57;1.20;;;;;23.50;100237.00;;;;2071972;28;20304;-56
2021/07/07 04:19:11;;;;;;;1.60;1.30;;;;;23.50;100224.00;;;;2072103;28;20710;-57
2021/07/07 04:20:12;;;;;;;1.40;1.27;;;;;23.50;100231.00;;;;2071489;28;20215;-54
2021/07/07 04:21:12;;;;;;;1.60;1.15;;;;;23.50;100237.00;;;;2071775;28;20238;-57
2021/07/07 04:22:13;;;;;;;1.40;1.10;;;;;23.50;100231.00;;;;2071725;28;20214;-57
2021/07/07 04:23:13;;;;;;;3.07;1.30;;;;;23.50;100230.00;;;;2072026;28;20210;-57
2021/07/07 04:24:14;;;;;;;1.90;1.30;;;;;23.50;100235.00;;;;2070030;28;20222;-54
2021/07/07 04:25:15;;;;;;;2.13;1.30;;;;;23.50;100243.00;;;;2072077;28;20214;-56
2021/07/07 04:26:15;;;;;;;4.00;1.37;;;;;23.50;100234.00;;;;2071671;28;20448;-56
2021/07/07 04:27:15;;;;;;;1.43;1.20;;;;;23.50;100238.00;;;;2071960;28;20302;-53
2021/07/07 04:28:16;;;;;;;1.90;1.40;;;;;23.50;100240.00;;;;2071387;28;20675;-55
2021/07/07 04:29:16;;;;;;;2.63;1.40;;;;;23.50;100238.00;;;;2071636;28;20210;-55
2021/07/07 04:30:17;;;;;;;2.10;1.23;;;;;23.50;100244.00;;;;2071333;28;20221;-55
2021/07/07 04:31:18;;;;;;;1.75;1.30;;;;;23.50;100240.00;;;;2071209;28;20257;-54
2021/07/07 04:32:18;;;;;;;1.60;1.43;;;;;23.50;100231.00;;;;2071745;28;20226;-56
2021/07/07 04:33:18;;;;;;;2.03;1.27;;;;;23.50;100234.00;;;;2071402;28;20318;-55
2021/07/07 04:34:19;;;;;;;2.03;1.30;;;;;23.50;100242.00;;;;2071426;28;20245;-57
2021/07/07 04:35:19;;;;;;;1.53;1.20;;;;;23.50;100232.00;;;;2071382;28;20210;-57
2021/07/07 04:36:19;;;;;;;1.57;1.40;;;;;23.50;100238.00;;;;2071070;28;20226;-57
2021/07/07 04:37:20;;;;;;;1.83;1.50;;;;;23.50;100244.00;;;;2071291;28;20313;-53
2021/07/07 04:38:20;;;;;;;1.90;1.23;;;;;23.50;100240.00;;;;2071270;28;20214;-55
2021/07/07 04:39:20;;;;;;;1.50;1.10;;;;;23.50;100241.00;;;;2070356;28;20218;-56
2021/07/07 04:40:21;;;;;;;1.43;1.23;;;;;23.50;100238.00;;;;2068305;28;20230;-56
2021/07/07 04:41:22;;;;;;;1.20;1.08;;;;;23.60;100237.00;;;;2062510;28;20219;-55
2021/07/07 04:42:22;;;;;;;2.00;1.13;;;;;23.50;100241.00;;;;2065430;28;20219;-54
2021/07/07 04:43:22;;;;;;;1.40;1.07;;;;;23.50;100245.00;;;;2063847;28;20751;-55
2021/07/07 04:44:23;;;;;;;2.03;1.20;;;;;23.50;100240.00;;;;2062700;28;20352;-56
2021/07/07 04:45:23;;;;;;;1.60;1.27;;;;;23.50;100249.00;;;;2063296;28;20281;-53
2021/07/07 04:46:23;;;;;;;1.60;1.33;;;;;23.50;100245.00;;;;2062886;28;20251;-52
2021/07/07 04:47:24;;;;;;;1.60;1.50;;;;;23.50;100243.00;;;;2063120;28;20246;-52
2021/07/07 04:48:24;;;;;;;2.30;1.17;;;;;23.50;100239.00;;;;2063459;28;20223;-53
2021/07/07 04:49:24;;;;;;;1.60;1.50;;;;;23.50;100247.00;;;;2063648;28;20226;-53
2021/07/07 04:50:25;;;;;;;1.73;1.30;;;;;23.50;100244.00;;;;2061838;28;20227;-55
2021/07/07 04:51:25;;;;;;;1.90;1.40;;;;;23.50;100242.00;;;;2063093;28;20272;-56
2021/07/07 04:52:25;;;;;;;2.07;1.43;;;;;23.50;100244.00;;;;2063419;28;20218;-57
2021/07/07 04:53:26;;;;;;;1.60;1.17;;;;;23.50;100239.00;;;;2063780;28;20222;-57
2021/07/07 04:54:26;;;;;;;1.70;1.37;;;;;23.50;100242.00;;;;2063640;28;20222;-52
2021/07/07 04:55:26;;;;;;;2.77;1.40;;;;;23.60;100243.00;;;;2061396;28;20214;-52
2021/07/07 04:56:27;;;;;;;1.50;1.13;;;;;23.60;100244.00;;;;2062945;28;20778;-54
2021/07/07 04:57:27;;;;;;;1.20;1.00;;;;;23.60;100242.00;;;;2063812;28;20709;-57
2021/07/07 04:58:27;;;;;;;1.67;1.20;;;;;23.50;100248.00;;;;2063790;28;20226;-55
2021/07/07 04:59:28;;;;;;;1.60;1.00;;;;;23.60;100248.00;;;;2063758;28;20361;-55
2021/07/07 05:00:29;;;;;;;1.23;1.10;;;;;23.60;100249.00;;;;2065847;28;20262;-53